createdAt,value
2018-02-05T00:00:52.185Z,0.00
2018-02-05T00:01:52.152Z,0.00
2018-02-05T00:02:52.142Z,0.00
2018-02-05T00:03:52.128Z,0.00
2018-02-05T00:04:52.119Z,0.00
2018-02-05T00:05:52.098Z,0.00
2018-02-05T00:06:52.083Z,0.00
2018-02-05T00:07:52.077Z,0.00
2018-02-05T00:08:52.054Z,0.00
2018-02-05T00:09:52.047Z,0.00
2018-02-05T00:10:52.030Z,0.00
2018-02-05T00:11:52.015Z,0.00
2018-02-05T00:12:52.003Z,0.00
2018-02-05T00:13:51.996Z,0.00
2018-02-05T00:14:51.970Z,0.00
2018-02-05T00:15:51.980Z,0.00
2018-02-05T00:16:51.945Z,0.00
2018-02-05T00:17:51.930Z,0.00
2018-02-05T00:18:51.916Z,0.00
2018-02-05T00:19:51.902Z,0.00
2018-02-05T00:20:51.891Z,0.00
2018-02-05T00:21:51.888Z,0.00
2018-02-05T00:22:51.865Z,0.00
2018-02-05T00:23:51.853Z,0.00
2018-02-05T00:24:51.850Z,0.00
2018-02-05T00:25:51.824Z,0.00
2018-02-05T00:26:51.821Z,0.00
2018-02-05T00:27:51.801Z,0.00
2018-02-05T00:28:51.794Z,0.00
2018-02-05T00:29:51.784Z,0.00
2018-02-05T00:30:51.755Z,0.00
2018-02-05T00:31:51.751Z,0.00
2018-02-05T00:32:51.749Z,0.00
2018-02-05T00:33:51.716Z,0.00
2018-02-05T00:34:51.703Z,0.00
2018-02-05T00:35:51.688Z,0.00
2018-02-05T00:36:51.676Z,0.00
2018-02-05T00:37:51.678Z,0.00
2018-02-05T00:38:51.647Z,0.00
2018-02-05T00:39:51.657Z,0.00
2018-02-05T00:40:51.624Z,0.00
2018-02-05T00:41:51.612Z,0.00
2018-02-05T00:42:51.618Z,0.00
2018-02-05T00:43:51.584Z,0.00
2018-02-05T00:44:51.570Z,0.00
2018-02-05T00:45:51.558Z,0.00
2018-02-05T00:46:51.546Z,0.00
2018-02-05T00:47:51.536Z,0.00
2018-02-05T00:48:51.535Z,0.00
2018-02-05T00:49:51.506Z,0.00
2018-02-05T00:50:51.488Z,0.00
2018-02-05T00:51:51.491Z,0.00
2018-02-05T00:52:51.478Z,0.00
2018-02-05T00:53:51.477Z,0.00
2018-02-05T00:54:51.445Z,0.00
2018-02-05T00:55:51.431Z,0.00
2018-02-05T00:56:51.418Z,0.00
2018-02-05T00:57:51.414Z,0.00
2018-02-05T00:58:51.411Z,0.00
2018-02-05T00:59:51.366Z,0.00
2018-02-05T01:00:51.353Z,0.00
2018-02-05T01:01:51.351Z,0.00
2018-02-05T01:02:51.333Z,0.00
2018-02-05T01:03:51.310Z,0.00
2018-02-05T01:04:51.309Z,0.00
2018-02-05T01:05:51.292Z,0.00
2018-02-05T01:06:51.282Z,0.00
2018-02-05T01:07:51.275Z,0.00
2018-02-05T01:08:51.247Z,0.00
2018-02-05T01:09:51.229Z,0.00
2018-02-05T01:10:51.219Z,0.00
2018-02-05T01:11:51.212Z,0.00
2018-02-05T01:12:51.215Z,0.00
2018-02-05T01:13:51.197Z,0.00
2018-02-05T01:14:51.164Z,0.00
2018-02-05T01:15:51.160Z,0.00
2018-02-05T01:16:51.133Z,0.00
2018-02-05T01:17:51.130Z,0.00
2018-02-05T01:18:51.118Z,0.00
2018-02-05T01:19:51.101Z,0.00
2018-02-05T01:20:51.091Z,0.00
2018-02-05T01:21:51.071Z,0.00
2018-02-05T01:22:51.056Z,0.00
2018-02-05T01:23:51.048Z,0.00
2018-02-05T01:24:51.022Z,0.00
2018-02-05T01:25:51.010Z,0.00
2018-02-05T01:26:50.998Z,0.00
2018-02-05T01:27:50.987Z,0.00
2018-02-05T01:28:50.974Z,0.00
2018-02-05T01:29:50.953Z,0.00
2018-02-05T01:30:50.985Z,0.00
2018-02-05T01:31:50.924Z,0.00
2018-02-05T01:32:50.926Z,0.00
2018-02-05T01:33:50.898Z,0.00
2018-02-05T01:34:50.900Z,0.00
2018-02-05T01:35:50.873Z,0.00
2018-02-05T01:36:50.853Z,0.00
2018-02-05T01:37:50.844Z,0.00
2018-02-05T01:38:50.827Z,0.00
2018-02-05T01:39:50.815Z,0.00
2018-02-05T01:40:50.801Z,0.00
2018-02-05T01:41:50.795Z,0.00
2018-02-05T01:42:50.775Z,0.00
2018-02-05T01:43:50.758Z,0.00
2018-02-05T01:44:50.741Z,0.00
2018-02-05T01:45:50.746Z,0.00
2018-02-05T01:46:50.716Z,0.00
2018-02-05T01:47:50.711Z,0.00
2018-02-05T01:48:50.686Z,0.00
2018-02-05T01:49:50.682Z,0.00
2018-02-05T01:50:50.669Z,0.00
2018-02-05T01:51:50.662Z,0.00
2018-02-05T01:52:50.632Z,0.00
2018-02-05T01:53:50.616Z,0.00
2018-02-05T01:54:50.604Z,0.00
2018-02-05T01:55:50.591Z,0.00
2018-02-05T01:56:50.573Z,0.00
2018-02-05T01:57:50.572Z,0.00
2018-02-05T01:58:50.547Z,0.00
2018-02-05T01:59:50.533Z,0.00
2018-02-05T02:00:50.517Z,0.00
2018-02-05T02:01:50.525Z,0.00
2018-02-05T02:02:50.499Z,0.00
2018-02-05T02:03:50.486Z,0.00
2018-02-05T02:04:50.476Z,0.00
2018-02-05T02:05:50.465Z,0.00
2018-02-05T02:06:50.431Z,0.00
2018-02-05T02:07:50.421Z,0.00
2018-02-05T02:08:50.416Z,0.00
2018-02-05T02:09:50.392Z,0.00
2018-02-05T02:10:50.380Z,0.00
2018-02-05T02:11:50.376Z,0.00
2018-02-05T02:12:50.348Z,0.00
2018-02-05T02:13:50.334Z,0.00
2018-02-05T02:14:50.323Z,0.00
2018-02-05T02:15:50.305Z,0.00
2018-02-05T02:16:50.294Z,0.00
2018-02-05T02:17:50.276Z,0.00
2018-02-05T02:18:50.263Z,0.00
2018-02-05T02:19:50.254Z,0.00
2018-02-05T02:20:50.248Z,0.00
2018-02-05T02:21:50.226Z,0.00
2018-02-05T02:22:50.208Z,0.00
2018-02-05T02:23:50.192Z,0.00
2018-02-05T02:24:50.177Z,0.00
2018-02-05T02:25:50.176Z,0.00
2018-02-05T02:26:50.153Z,0.00
2018-02-05T02:27:50.136Z,0.00
2018-02-05T02:28:50.124Z,0.00
2018-02-05T02:29:50.115Z,0.00
2018-02-05T02:30:50.097Z,0.00
2018-02-05T02:31:50.086Z,0.00
2018-02-05T02:32:50.081Z,0.00
2018-02-05T02:33:50.067Z,0.00
2018-02-05T02:34:50.054Z,0.00
2018-02-05T02:35:50.035Z,0.00
2018-02-05T02:36:50.010Z,0.00
2018-02-05T02:37:49.997Z,0.00
2018-02-05T02:38:49.983Z,0.00
2018-02-05T02:39:49.970Z,0.00
2018-02-05T02:40:49.952Z,0.00
2018-02-05T02:41:50.310Z,0.00
2018-02-05T02:42:49.948Z,0.00
2018-02-05T02:43:49.917Z,0.00
2018-02-05T02:44:49.913Z,0.00
2018-02-05T02:45:49.897Z,0.00
2018-02-05T02:46:49.883Z,0.00
2018-02-05T02:47:49.867Z,0.00
2018-02-05T02:48:49.846Z,0.00
2018-02-05T02:49:49.830Z,0.00
2018-02-05T02:50:49.817Z,0.00
2018-02-05T02:51:49.810Z,0.00
2018-02-05T02:52:49.796Z,0.00
2018-02-05T02:53:49.784Z,0.00
2018-02-05T02:54:49.760Z,0.00
2018-02-05T02:55:49.741Z,0.00
2018-02-05T02:56:49.735Z,0.00
2018-02-05T02:57:49.716Z,0.00
2018-02-05T02:58:49.716Z,0.00
2018-02-05T02:59:49.686Z,0.00
2018-02-05T03:00:49.672Z,0.00
2018-02-05T03:01:49.684Z,0.00
2018-02-05T03:02:49.660Z,0.00
2018-02-05T03:03:49.645Z,0.00
2018-02-05T03:04:49.616Z,0.00
2018-02-05T03:05:49.607Z,0.00
2018-02-05T03:06:49.600Z,0.00
2018-02-05T03:07:49.574Z,0.00
2018-02-05T03:08:49.562Z,0.00
2018-02-05T03:09:49.550Z,0.00
2018-02-05T03:10:49.542Z,0.00
2018-02-05T03:11:49.532Z,0.00
2018-02-05T03:12:49.508Z,0.00
2018-02-05T03:13:49.489Z,0.00
2018-02-05T03:14:49.489Z,0.00
2018-02-05T03:15:49.470Z,0.00
2018-02-05T03:16:49.448Z,0.00
2018-02-05T03:17:49.434Z,0.00
2018-02-05T03:18:49.429Z,0.00
2018-02-05T03:19:49.403Z,0.00
2018-02-05T03:20:49.399Z,0.00
2018-02-05T03:21:49.376Z,0.00
2018-02-05T03:22:49.376Z,0.00
2018-02-05T03:23:49.362Z,0.00
2018-02-05T03:24:49.332Z,0.00
2018-02-05T03:25:49.333Z,0.00
2018-02-05T03:26:49.306Z,0.00
2018-02-05T03:27:49.303Z,0.00
2018-02-05T03:28:49.300Z,0.00
2018-02-05T03:29:49.265Z,0.00
2018-02-05T03:30:49.252Z,0.00
2018-02-05T03:31:49.267Z,0.00
2018-02-05T03:32:49.233Z,0.00
2018-02-05T03:33:49.203Z,0.00
2018-02-05T03:34:49.196Z,0.00
2018-02-05T03:35:49.186Z,0.00
2018-02-05T03:36:49.161Z,0.00
2018-02-05T03:37:49.146Z,0.00
2018-02-05T03:38:49.145Z,0.00
2018-02-05T03:39:49.131Z,0.00
2018-02-05T03:40:49.110Z,0.00
2018-02-05T03:41:49.088Z,0.00
2018-02-05T03:42:49.076Z,0.00
2018-02-05T03:43:49.062Z,0.00
2018-02-05T03:44:49.051Z,0.00
2018-02-05T03:45:49.044Z,0.00
2018-02-05T03:46:49.026Z,0.00
2018-02-05T03:47:49.005Z,0.00
2018-02-05T03:48:49.002Z,0.00
2018-02-05T03:49:48.980Z,0.00
2018-02-05T03:50:48.977Z,0.00
2018-02-05T03:51:48.948Z,0.00
2018-02-05T03:52:48.933Z,0.00
2018-02-05T03:53:48.920Z,0.00
2018-02-05T03:54:48.907Z,0.00
2018-02-05T03:55:48.901Z,0.00
2018-02-05T03:56:48.887Z,0.00
2018-02-05T03:57:48.872Z,0.00
2018-02-05T03:58:48.863Z,0.00
2018-02-05T03:59:48.840Z,0.00
2018-02-05T04:00:48.816Z,0.00
2018-02-05T04:01:48.814Z,0.00
2018-02-05T04:02:48.795Z,0.00
2018-02-05T04:03:48.795Z,0.00
2018-02-05T04:04:48.760Z,0.00
2018-02-05T04:05:48.746Z,0.00
2018-02-05T04:06:48.745Z,0.00
2018-02-05T04:07:48.718Z,0.00
2018-02-05T04:08:48.723Z,0.00
2018-02-05T04:09:48.702Z,0.00
2018-02-05T04:10:48.674Z,0.00
2018-02-05T04:11:48.674Z,0.00
2018-02-05T04:12:48.659Z,0.00
2018-02-05T04:13:48.664Z,0.00
2018-02-05T04:14:48.620Z,0.00
2018-02-05T04:15:48.630Z,0.00
2018-02-05T04:16:48.588Z,0.00
2018-02-05T04:17:48.600Z,0.00
2018-02-05T04:18:48.588Z,0.00
2018-02-05T04:19:48.570Z,0.00
2018-02-05T04:22:22.717Z,0.00
2018-02-05T04:23:22.169Z,0.00
2018-02-05T04:25:15.925Z,0.00
2018-02-05T04:26:15.859Z,0.00
2018-02-05T04:27:15.851Z,0.00
2018-02-05T04:28:15.835Z,0.00
2018-02-05T04:29:15.816Z,0.00
2018-02-05T04:30:15.807Z,0.00
2018-02-05T04:31:15.817Z,0.00
2018-02-05T04:32:15.776Z,0.00
2018-02-05T04:33:15.769Z,0.00
2018-02-05T04:34:15.748Z,0.00
2018-02-05T04:35:15.734Z,0.00
2018-02-05T04:36:15.720Z,0.00
2018-02-05T04:37:15.719Z,0.00
2018-02-05T04:38:15.695Z,0.00
2018-02-05T04:39:15.681Z,0.00
2018-02-05T04:40:15.668Z,0.00
2018-02-05T04:41:15.672Z,0.00
2018-02-05T04:42:15.633Z,0.00
2018-02-05T04:43:15.625Z,0.00
2018-02-05T04:44:15.619Z,0.00
2018-02-05T04:45:15.599Z,0.00
2018-02-05T04:46:15.580Z,0.00
2018-02-05T04:47:15.565Z,0.00
2018-02-05T04:48:15.558Z,0.00
2018-02-05T04:49:15.538Z,0.00
2018-02-05T04:50:15.525Z,0.00
2018-02-05T04:51:15.514Z,0.00
2018-02-05T04:52:15.497Z,0.00
2018-02-05T04:53:15.495Z,0.00
2018-02-05T04:54:15.475Z,0.00
2018-02-05T04:55:15.459Z,0.00
2018-02-05T04:56:15.438Z,0.00
2018-02-05T04:57:15.425Z,0.00
2018-02-05T04:58:15.414Z,0.00
2018-02-05T04:59:15.404Z,0.00
2018-02-05T05:00:15.387Z,0.00
2018-02-05T05:01:15.369Z,0.00
2018-02-05T05:02:15.362Z,0.00
2018-02-05T05:03:15.365Z,0.00
2018-02-05T05:04:15.338Z,0.00
2018-02-05T05:05:15.316Z,0.00
2018-02-05T05:06:15.308Z,0.00
2018-02-05T05:07:15.293Z,0.00
2018-02-05T05:08:15.281Z,0.00
2018-02-05T05:09:15.263Z,0.00
2018-02-05T05:10:15.250Z,0.00
2018-02-05T05:11:15.235Z,0.00
2018-02-05T05:12:15.223Z,0.00
2018-02-05T05:13:15.218Z,0.00
2018-02-05T05:14:15.209Z,0.00
2018-02-05T05:15:15.175Z,0.00
2018-02-05T05:16:15.161Z,0.00
2018-02-05T05:17:15.173Z,0.00
2018-02-05T05:18:15.154Z,0.00
2018-02-05T05:19:15.153Z,0.00
2018-02-05T05:20:15.111Z,0.00
2018-02-05T05:21:15.093Z,0.00
2018-02-05T05:22:15.081Z,0.00
2018-02-05T05:23:15.067Z,0.00
2018-02-05T05:24:15.058Z,0.00
2018-02-05T05:25:15.036Z,0.00
2018-02-05T05:26:15.024Z,0.00
2018-02-05T05:27:15.013Z,0.00
2018-02-05T05:28:15.000Z,0.00
2018-02-05T05:29:14.986Z,0.00
2018-02-05T05:30:14.973Z,0.00
2018-02-05T05:31:14.963Z,0.00
2018-02-05T05:32:14.940Z,0.00
2018-02-05T05:33:14.950Z,0.00
2018-02-05T05:34:14.915Z,0.00
2018-02-05T05:35:14.906Z,0.00
2018-02-05T05:36:14.889Z,0.00
2018-02-05T05:37:14.871Z,0.00
2018-02-05T05:38:14.881Z,0.00
2018-02-05T05:39:14.849Z,0.00
2018-02-05T05:40:14.847Z,0.00
2018-02-05T05:41:14.819Z,0.00
2018-02-05T05:42:14.827Z,0.00
2018-02-05T05:43:14.820Z,0.00
2018-02-05T05:44:14.782Z,0.00
2018-02-05T05:45:14.768Z,0.00
2018-02-05T05:46:14.750Z,0.00
2018-02-05T05:47:14.764Z,0.00
2018-02-05T05:48:14.754Z,0.00
2018-02-05T05:49:14.714Z,0.00
2018-02-05T05:50:14.701Z,0.00
2018-02-05T05:51:14.684Z,0.00
2018-02-05T05:52:14.696Z,0.00
2018-02-05T05:53:14.688Z,0.00
2018-02-05T05:54:14.650Z,0.00
2018-02-05T05:55:14.633Z,0.00
2018-02-05T05:56:14.618Z,0.00
2018-02-05T05:57:14.612Z,0.00
2018-02-05T05:58:14.594Z,0.00
2018-02-05T05:59:14.580Z,0.00
2018-02-05T06:00:14.559Z,0.00
2018-02-05T06:01:14.547Z,0.00
2018-02-05T06:02:14.548Z,0.00
2018-02-05T06:03:14.525Z,0.00
2018-02-05T06:04:14.507Z,0.00
2018-02-05T06:05:14.494Z,0.00
2018-02-05T06:06:14.479Z,0.00
2018-02-05T06:07:14.485Z,0.00
2018-02-05T06:08:14.460Z,0.00
2018-02-05T06:09:14.452Z,0.00
2018-02-05T06:10:14.421Z,0.00
2018-02-05T06:11:14.415Z,0.00
2018-02-05T06:12:14.408Z,0.00
2018-02-05T06:13:14.422Z,0.00
2018-02-05T06:14:14.375Z,0.00
2018-02-05T06:15:14.530Z,0.00
2018-02-05T06:16:14.346Z,0.00
2018-02-05T06:17:14.330Z,0.00
2018-02-05T06:18:14.328Z,0.00
2018-02-05T06:19:14.310Z,0.00
2018-02-05T06:20:14.291Z,0.00
2018-02-05T06:21:14.280Z,0.00
2018-02-05T06:22:14.306Z,0.00
2018-02-05T06:23:14.261Z,0.00
2018-02-05T06:24:14.238Z,0.00
2018-02-05T06:25:14.234Z,0.00
2018-02-05T06:26:14.214Z,0.00
2018-02-05T06:27:14.195Z,0.00
2018-02-05T06:28:14.183Z,0.00
2018-02-05T06:29:14.168Z,0.00
2018-02-05T06:30:14.154Z,0.00
2018-02-05T06:31:14.151Z,0.00
2018-02-05T06:32:14.127Z,0.00
2018-02-05T06:33:14.126Z,0.00
2018-02-05T06:34:14.099Z,4.00
2018-02-05T06:35:14.088Z,0.00
2018-02-05T06:36:14.089Z,4.00
2018-02-05T06:37:14.062Z,0.00
2018-02-05T06:38:14.086Z,4.00
2018-02-05T06:39:14.035Z,4.00
2018-02-05T06:40:14.021Z,4.00
2018-02-05T06:41:14.024Z,4.00
2018-02-05T06:42:13.990Z,4.00
2018-02-05T06:43:13.976Z,8.00
2018-02-05T06:44:13.984Z,12.00
2018-02-05T06:45:13.952Z,8.00
2018-02-05T06:46:13.939Z,12.00
2018-02-05T06:47:13.927Z,12.00
2018-02-05T06:48:13.911Z,12.00
2018-02-05T06:49:13.905Z,12.00
2018-02-05T06:50:13.885Z,8.00
2018-02-05T06:51:13.874Z,16.00
2018-02-05T06:52:13.883Z,20.00
2018-02-05T06:53:13.865Z,20.00
2018-02-05T06:54:13.835Z,24.00
2018-02-05T06:55:13.819Z,20.00
2018-02-05T06:56:13.802Z,24.00
2018-02-05T06:57:13.790Z,24.00
2018-02-05T06:58:13.801Z,20.00
2018-02-05T06:59:13.798Z,20.00
2018-02-05T07:00:13.788Z,20.00
2018-02-05T07:01:13.737Z,28.00
2018-02-05T07:02:15.589Z,32.00
2018-02-05T07:03:13.716Z,36.00
2018-02-05T07:04:13.698Z,40.00
2018-02-05T07:05:13.688Z,44.00
2018-02-05T07:06:13.736Z,48.00
2018-02-05T07:07:13.666Z,48.00
2018-02-05T07:08:13.649Z,56.00
2018-02-05T07:09:13.656Z,68.00
2018-02-05T07:10:13.617Z,76.00
2018-02-05T07:11:13.606Z,100.00
2018-02-05T07:12:13.594Z,136.00
2018-02-05T07:13:13.580Z,180.00
2018-02-05T07:14:13.586Z,224.00
2018-02-05T07:15:13.586Z,272.00
2018-02-05T07:16:13.542Z,304.00
2018-02-05T07:17:13.522Z,352.00
2018-02-05T07:18:13.516Z,380.00
2018-02-05T07:19:13.501Z,380.00
2018-02-05T07:20:13.488Z,364.00
2018-02-05T07:21:13.472Z,332.00
2018-02-05T07:22:13.459Z,312.00
2018-02-05T07:23:13.450Z,304.00
2018-02-05T07:24:13.441Z,320.00
2018-02-05T07:25:13.418Z,328.00
2018-02-05T07:26:13.430Z,340.00
2018-02-05T07:27:13.403Z,320.00
2018-02-05T07:28:13.384Z,288.00
2018-02-05T07:29:13.373Z,276.00
2018-02-05T07:30:13.369Z,400.00
2018-02-05T07:31:13.372Z,420.00
2018-02-05T07:32:13.330Z,368.00
2018-02-05T07:33:13.317Z,268.00
2018-02-05T07:34:13.303Z,260.00
2018-02-05T07:35:13.287Z,344.00
2018-02-05T07:36:13.279Z,460.00
2018-02-05T07:37:13.264Z,396.00
2018-02-05T07:38:13.267Z,364.00
2018-02-05T07:39:13.243Z,308.00
2018-02-05T07:40:13.228Z,384.00
2018-02-05T07:41:13.207Z,460.00
2018-02-05T07:42:13.196Z,484.00
2018-02-05T07:43:13.193Z,420.00
2018-02-05T07:44:13.172Z,364.00
2018-02-05T07:45:13.158Z,360.00
2018-02-05T07:46:13.147Z,384.00
2018-02-05T07:47:13.140Z,360.00
2018-02-05T07:48:13.116Z,380.00
2018-02-05T07:49:13.105Z,376.00
2018-02-05T07:50:13.097Z,324.00
2018-02-05T07:51:13.101Z,284.00
2018-02-05T07:52:13.079Z,352.00
2018-02-05T07:53:13.052Z,400.00
2018-02-05T07:54:13.042Z,356.00
2018-02-05T07:55:13.025Z,372.00
2018-02-05T07:56:13.012Z,400.00
2018-02-05T07:57:12.998Z,344.00
2018-02-05T07:58:12.986Z,324.00
2018-02-05T07:59:12.976Z,308.00
2018-02-05T08:00:12.959Z,276.00
2018-02-05T08:01:12.950Z,260.00
2018-02-05T08:02:12.965Z,252.00
2018-02-05T08:03:12.922Z,224.00
2018-02-05T08:04:12.908Z,204.00
2018-02-05T08:05:12.911Z,192.00
2018-02-05T08:06:12.881Z,204.00
2018-02-05T08:07:12.878Z,220.00
2018-02-05T08:08:12.850Z,220.00
2018-02-05T08:09:12.842Z,220.00
2018-02-05T08:10:12.860Z,216.00
2018-02-05T08:11:12.821Z,232.00
2018-02-05T08:12:12.817Z,272.00
2018-02-05T08:13:12.788Z,340.00
2018-02-05T08:14:12.803Z,468.00
2018-02-05T08:15:12.767Z,632.00
2018-02-05T08:16:12.756Z,808.00
2018-02-05T08:17:12.733Z,940.00
2018-02-05T08:18:12.732Z,1280.00
2018-02-05T08:19:12.720Z,1544.00
2018-02-05T08:20:12.712Z,1876.00
2018-02-05T08:21:12.698Z,2360.00
2018-02-05T08:22:12.669Z,2860.00
2018-02-05T08:23:12.657Z,3032.00
2018-02-05T08:24:12.644Z,2880.00
2018-02-05T08:25:12.638Z,2828.00
2018-02-05T08:26:12.626Z,2684.00
2018-02-05T08:27:12.638Z,2580.00
2018-02-05T08:28:12.587Z,2640.00
2018-02-05T08:29:12.577Z,2984.00
2018-02-05T08:30:12.561Z,3608.00
2018-02-05T08:31:12.566Z,3888.00
2018-02-05T08:32:12.535Z,3792.00
2018-02-05T08:33:12.557Z,3512.00
2018-02-05T08:34:12.512Z,3872.00
2018-02-05T08:35:12.517Z,3988.00
2018-02-05T08:36:12.501Z,4236.00
2018-02-05T08:37:12.472Z,4436.00
2018-02-05T08:38:12.468Z,4836.00
2018-02-05T08:39:12.461Z,5000.00
2018-02-05T08:40:12.438Z,5228.00
2018-02-05T08:41:12.464Z,5436.00
2018-02-05T08:42:12.424Z,5488.00
2018-02-05T08:43:12.397Z,5200.00
2018-02-05T08:44:12.389Z,4660.00
2018-02-05T08:45:12.384Z,4536.00
2018-02-05T08:46:12.365Z,3860.00
2018-02-05T08:47:12.347Z,3468.00
2018-02-05T08:48:12.329Z,3888.00
2018-02-05T08:49:12.320Z,4448.00
2018-02-05T08:50:12.310Z,4320.00
2018-02-05T08:51:12.293Z,3852.00
2018-02-05T08:52:12.279Z,3452.00
2018-02-05T08:53:12.282Z,2824.00
2018-02-05T08:54:12.282Z,2760.00
2018-02-05T08:55:12.262Z,2668.00
2018-02-05T08:56:12.232Z,2736.00
2018-02-05T08:57:12.226Z,2968.00
2018-02-05T08:58:12.204Z,3152.00
2018-02-05T08:59:12.191Z,3276.00
2018-02-05T09:00:12.193Z,3404.00
2018-02-05T09:01:12.185Z,3556.00
2018-02-05T09:02:12.178Z,3548.00
2018-02-05T09:03:12.166Z,3860.00
2018-02-05T09:04:12.140Z,4320.00
2018-02-05T09:05:12.124Z,4204.00
2018-02-05T09:06:12.108Z,3720.00
2018-02-05T09:07:12.084Z,4072.00
2018-02-05T09:08:12.075Z,4240.00
2018-02-05T09:09:12.072Z,5432.00
2018-02-05T09:10:12.053Z,6148.00
2018-02-05T09:11:12.050Z,6304.00
2018-02-05T09:12:12.373Z,5384.00
2018-02-05T09:13:12.008Z,3856.00
2018-02-05T09:14:14.927Z,4264.00
2018-02-05T09:15:12.768Z,4740.00
2018-02-05T09:16:11.988Z,4900.00
2018-02-05T09:17:11.956Z,5504.00
2018-02-05T09:18:11.983Z,6084.00
2018-02-05T09:19:11.937Z,5948.00
2018-02-05T09:20:11.919Z,5816.00
2018-02-05T09:21:11.928Z,6412.00
2018-02-05T09:22:11.898Z,5948.00
2018-02-05T09:23:11.896Z,4972.00
2018-02-05T09:24:11.878Z,3840.00
2018-02-05T09:25:11.855Z,3720.00
2018-02-05T09:26:11.865Z,3968.00
2018-02-05T09:27:11.851Z,4220.00
2018-02-05T09:28:11.864Z,4692.00
2018-02-05T09:29:11.841Z,4956.00
2018-02-05T09:30:11.790Z,6376.00
2018-02-05T09:31:11.780Z,7920.00
2018-02-05T09:32:11.781Z,6932.00
2018-02-05T09:33:11.793Z,6680.00
2018-02-05T09:34:11.819Z,8024.00
2018-02-05T09:35:11.726Z,8180.00
2018-02-05T09:36:11.730Z,8072.00
2018-02-05T09:37:11.701Z,6844.00
2018-02-05T09:38:11.698Z,7084.00
2018-02-05T09:39:11.753Z,7292.00
2018-02-05T09:40:11.709Z,8416.00
2018-02-05T09:41:11.679Z,10520.00
2018-02-05T09:42:11.648Z,10404.00
2018-02-05T09:43:11.634Z,10980.00
2018-02-05T09:44:11.619Z,18496.00
2018-02-05T09:45:11.609Z,18464.00
2018-02-05T09:46:11.596Z,13212.00
2018-02-05T09:47:11.593Z,14080.00
2018-02-05T09:48:11.568Z,12280.00
2018-02-05T09:49:11.557Z,11972.00
2018-02-05T09:50:11.555Z,11524.00
2018-02-05T09:51:11.535Z,11296.00
2018-02-05T09:52:11.524Z,9960.00
2018-02-05T09:53:11.520Z,10828.00
2018-02-05T09:54:11.498Z,10044.00
2018-02-05T09:55:11.497Z,9592.00
2018-02-05T09:56:11.481Z,8572.00
2018-02-05T09:57:11.464Z,6492.00
2018-02-05T09:58:11.468Z,5864.00
2018-02-05T09:59:11.442Z,3604.00
2018-02-05T10:00:11.446Z,3668.00
2018-02-05T10:01:11.435Z,3464.00
2018-02-05T10:02:11.407Z,3188.00
2018-02-05T10:03:11.426Z,3280.00
2018-02-05T10:04:11.399Z,3520.00
2018-02-05T10:05:11.381Z,3292.00
2018-02-05T10:06:11.360Z,2368.00
2018-02-05T10:07:11.371Z,2200.00
2018-02-05T10:08:11.364Z,2412.00
2018-02-05T10:09:11.329Z,2428.00
2018-02-05T10:10:11.327Z,2196.00
2018-02-05T10:11:11.301Z,1816.00
2018-02-05T10:12:11.291Z,1584.00
2018-02-05T10:13:11.280Z,1660.00
2018-02-05T10:14:11.293Z,1760.00
2018-02-05T10:15:11.272Z,1816.00
2018-02-05T10:16:11.237Z,2008.00
2018-02-05T10:17:11.237Z,1972.00
2018-02-05T10:18:11.234Z,1784.00
2018-02-05T10:19:11.202Z,2024.00
2018-02-05T10:20:11.196Z,2432.00
2018-02-05T10:21:11.177Z,2804.00
2018-02-05T10:22:11.165Z,3332.00
2018-02-05T10:23:11.184Z,3720.00
2018-02-05T10:24:11.163Z,4020.00
2018-02-05T10:25:11.138Z,4456.00
2018-02-05T10:26:11.120Z,4736.00
2018-02-05T10:27:11.111Z,5392.00
2018-02-05T10:28:11.094Z,5816.00
2018-02-05T10:29:11.083Z,6400.00
2018-02-05T10:30:11.068Z,7484.00
2018-02-05T10:31:11.054Z,6660.00
2018-02-05T10:32:11.043Z,5500.00
2018-02-05T10:33:11.024Z,5592.00
2018-02-05T10:34:11.017Z,5468.00
2018-02-05T10:35:11.002Z,5444.00
2018-02-05T10:36:10.998Z,4920.00
2018-02-05T10:37:10.978Z,4364.00
2018-02-05T10:38:10.978Z,3504.00
2018-02-05T10:39:10.974Z,2884.00
2018-02-05T10:40:10.937Z,2440.00
2018-02-05T10:41:10.959Z,2236.00
2018-02-05T10:42:10.916Z,2292.00
2018-02-05T10:43:10.912Z,2508.00
2018-02-05T10:44:10.910Z,3320.00
2018-02-05T10:45:10.902Z,4136.00
2018-02-05T10:46:10.866Z,5552.00
2018-02-05T10:47:10.858Z,6756.00
2018-02-05T10:48:10.837Z,7956.00
2018-02-05T10:49:10.834Z,9032.00
2018-02-05T10:50:10.838Z,10036.00
2018-02-05T10:51:10.827Z,10832.00
2018-02-05T10:52:10.790Z,10980.00
2018-02-05T10:53:10.794Z,10648.00
2018-02-05T10:54:10.766Z,10028.00
2018-02-05T10:55:10.796Z,9500.00
2018-02-05T10:56:10.768Z,10188.00
2018-02-05T10:57:10.730Z,12472.00
2018-02-05T10:58:10.715Z,11256.00
2018-02-05T10:59:10.719Z,10540.00
2018-02-05T11:00:10.709Z,8780.00
2018-02-05T11:01:10.717Z,7620.00
2018-02-05T11:02:10.668Z,8844.00
2018-02-05T11:03:10.653Z,10036.00
2018-02-05T11:04:10.638Z,9500.00
2018-02-05T11:05:10.629Z,8896.00
2018-02-05T11:06:10.626Z,8308.00
2018-02-05T11:07:10.619Z,7540.00
2018-02-05T11:08:10.595Z,7880.00
2018-02-05T11:09:10.587Z,8580.00
2018-02-05T11:10:10.567Z,8144.00
2018-02-05T11:11:10.582Z,7988.00
2018-02-05T11:12:10.558Z,9208.00
2018-02-05T11:13:10.562Z,9260.00
2018-02-05T11:14:10.524Z,7952.00
2018-02-05T11:15:10.511Z,8032.00
2018-02-05T11:16:10.500Z,7296.00
2018-02-05T11:17:10.493Z,5828.00
2018-02-05T11:18:10.505Z,5116.00
2018-02-05T11:19:10.476Z,4564.00
2018-02-05T11:20:10.448Z,5400.00
2018-02-05T11:21:10.467Z,5684.00
2018-02-05T11:22:10.495Z,5108.00
2018-02-05T11:23:10.424Z,5208.00
2018-02-05T11:24:10.403Z,5032.00
2018-02-05T11:25:10.390Z,4088.00
2018-02-05T11:26:10.380Z,3352.00
2018-02-05T11:27:10.368Z,3128.00
2018-02-05T11:28:10.371Z,3260.00
2018-02-05T11:29:10.342Z,3880.00
2018-02-05T11:30:10.331Z,5064.00
2018-02-05T11:31:10.329Z,5828.00
2018-02-05T11:32:10.327Z,5088.00
2018-02-05T11:33:10.302Z,4704.00
2018-02-05T11:34:10.284Z,4620.00
2018-02-05T11:35:10.291Z,4028.00
2018-02-05T11:36:10.304Z,4440.00
2018-02-05T11:37:10.252Z,5168.00
2018-02-05T11:38:10.233Z,4484.00
2018-02-05T11:39:10.227Z,4408.00
2018-02-05T11:40:10.209Z,4108.00
2018-02-05T11:41:10.207Z,3592.00
2018-02-05T11:42:10.185Z,4256.00
2018-02-05T11:43:10.178Z,5260.00
2018-02-05T11:44:10.165Z,5696.00
2018-02-05T11:45:10.169Z,5716.00
2018-02-05T11:46:10.153Z,6776.00
2018-02-05T11:47:10.126Z,7836.00
2018-02-05T11:48:10.113Z,7924.00
2018-02-05T11:49:10.100Z,7800.00
2018-02-05T11:50:10.084Z,8000.00
2018-02-05T11:51:10.077Z,8212.00
2018-02-05T11:52:10.058Z,8040.00
2018-02-05T11:53:10.053Z,6988.00
2018-02-05T11:54:10.036Z,5676.00
2018-02-05T11:55:10.044Z,5376.00
2018-02-05T11:56:10.037Z,6524.00
2018-02-05T11:57:10.002Z,7524.00
2018-02-05T11:58:10.008Z,6676.00
2018-02-05T11:59:09.974Z,5840.00
2018-02-05T12:00:09.961Z,4716.00
2018-02-05T12:01:09.977Z,5292.00
2018-02-05T12:02:09.939Z,5628.00
2018-02-05T12:03:09.940Z,5808.00
2018-02-05T12:04:09.936Z,6696.00
2018-02-05T12:05:09.902Z,6912.00
2018-02-05T12:06:09.895Z,6784.00
2018-02-05T12:07:09.876Z,5600.00
2018-02-05T12:08:09.880Z,4848.00
2018-02-05T12:09:09.859Z,4500.00
2018-02-05T12:10:09.840Z,3876.00
2018-02-05T12:11:09.834Z,3412.00
2018-02-05T12:12:09.844Z,3480.00
2018-02-05T12:13:09.843Z,3664.00
2018-02-05T12:14:09.797Z,3652.00
2018-02-05T12:15:09.783Z,3832.00
2018-02-05T12:16:09.767Z,4260.00
2018-02-05T12:17:09.760Z,4184.00
2018-02-05T12:18:09.775Z,4248.00
2018-02-05T12:19:09.758Z,3992.00
2018-02-05T12:20:09.719Z,3376.00
2018-02-05T12:21:09.716Z,2848.00
2018-02-05T12:22:09.702Z,3088.00
2018-02-05T12:23:09.689Z,3792.00
2018-02-05T12:24:09.675Z,4384.00
2018-02-05T12:25:09.654Z,4232.00
2018-02-05T12:26:09.657Z,3700.00
2018-02-05T12:27:09.635Z,3152.00
2018-02-05T12:28:09.621Z,3124.00
2018-02-05T12:29:09.610Z,3612.00
2018-02-05T12:30:09.595Z,3584.00
2018-02-05T12:31:09.584Z,3604.00
2018-02-05T12:32:09.569Z,3688.00
2018-02-05T12:33:09.583Z,3808.00
2018-02-05T12:34:09.564Z,3960.00
2018-02-05T12:35:09.549Z,4100.00
2018-02-05T12:36:09.524Z,4508.00
2018-02-05T12:37:09.506Z,5164.00
2018-02-05T12:38:09.499Z,5612.00
2018-02-05T12:39:09.484Z,5828.00
2018-02-05T12:40:09.503Z,6608.00
2018-02-05T12:41:09.458Z,7436.00
2018-02-05T12:42:09.448Z,7900.00
2018-02-05T12:43:09.469Z,8768.00
2018-02-05T12:44:09.419Z,9500.00
2018-02-05T12:45:09.409Z,9804.00
2018-02-05T12:46:09.395Z,10032.00
2018-02-05T12:47:09.384Z,10348.00
2018-02-05T12:48:09.371Z,11044.00